createdAt,value
2023-04-19T00:01:20.272Z,16.27
2023-04-19T00:03:47.972Z,16.20
2023-04-19T00:06:15.155Z,16.17
2023-04-19T00:08:42.433Z,16.20
2023-04-19T00:11:09.145Z,16.33
2023-04-19T00:13:35.766Z,16.11
2023-04-19T00:16:02.541Z,16.16
2023-04-19T00:18:30.174Z,16.37
2023-04-19T00:20:57.434Z,16.19
2023-04-19T00:23:25.750Z,16.28
2023-04-19T00:25:52.383Z,16.19
2023-04-19T00:28:19.180Z,16.22
2023-04-19T00:30:45.945Z,16.35
2023-04-19T00:33:15.495Z,16.40
2023-04-19T00:35:42.478Z,16.21
2023-04-19T00:38:09.132Z,16.16
2023-04-19T00:40:37.206Z,16.33
2023-04-19T00:43:04.888Z,16.36
2023-04-19T00:45:32.636Z,16.21
2023-04-19T00:48:00.075Z,16.22
2023-04-19T00:50:27.930Z,16.12
2023-04-19T00:52:55.704Z,16.09
2023-04-19T00:55:24.714Z,16.11
2023-04-19T00:57:52.356Z,16.22
2023-04-19T01:00:20.116Z,15.75
2023-04-19T01:02:47.731Z,15.95
2023-04-19T01:05:14.862Z,16.25
2023-04-19T01:07:42.091Z,15.58
2023-04-19T01:10:09.180Z,15.92
2023-04-19T01:12:35.990Z,16.36
2023-04-19T01:15:03.524Z,16.37
2023-04-19T01:17:31.806Z,16.44
2023-04-19T01:20:08.218Z,16.28
2023-04-19T01:22:37.737Z,16.38
2023-04-19T01:25:05.124Z,16.39
2023-04-19T01:27:31.849Z,16.41
2023-04-19T01:29:58.482Z,16.22
2023-04-19T01:32:26.963Z,16.40
2023-04-19T01:34:55.883Z,16.55
2023-04-19T01:37:22.526Z,16.48
2023-04-19T01:39:49.335Z,15.98
2023-04-19T01:42:15.918Z,15.55
2023-04-19T01:44:42.518Z,15.71
2023-04-19T01:47:09.330Z,15.07
2023-04-19T01:49:36.133Z,15.49
2023-04-19T01:52:02.806Z,15.65
2023-04-19T01:54:29.454Z,15.61
2023-04-19T01:56:56.087Z,15.18
2023-04-19T01:59:22.816Z,15.67
2023-04-19T02:01:50.570Z,15.62
2023-04-19T02:04:20.199Z,15.27
2023-04-19T02:06:46.938Z,15.05
2023-04-19T02:09:13.519Z,15.41
2023-04-19T02:11:42.206Z,15.42
2023-04-19T02:14:08.742Z,14.93
2023-04-19T02:16:36.241Z,15.13
2023-04-19T02:19:03.458Z,15.15
2023-04-19T02:21:30.095Z,14.88
2023-04-19T02:23:56.741Z,14.72
2023-04-19T02:26:24.610Z,14.72
2023-04-19T02:28:52.228Z,15.02
2023-04-19T02:31:18.944Z,15.48
2023-04-19T02:33:46.895Z,15.26
2023-04-19T02:36:13.608Z,14.92
2023-04-19T02:38:40.281Z,14.80
2023-04-19T02:41:07.073Z,14.87
2023-04-19T02:43:33.725Z,15.55
2023-04-19T02:46:00.432Z,14.71
2023-04-19T02:48:27.185Z,15.05
2023-04-19T02:50:53.842Z,14.94
2023-04-19T02:53:20.825Z,14.92
2023-04-19T02:55:49.070Z,14.94
2023-04-19T02:58:18.866Z,14.43
2023-04-19T03:01:14.917Z,14.56
2023-04-19T03:03:41.926Z,14.87
2023-04-19T03:06:09.193Z,14.61
2023-04-19T03:08:36.450Z,14.66
2023-04-19T03:11:03.077Z,14.20
2023-04-19T03:13:30.969Z,14.12
2023-04-19T03:15:57.646Z,14.33
2023-04-19T03:18:24.844Z,15.01
2023-04-19T03:20:54.400Z,14.62
2023-04-19T03:23:21.449Z,14.47
2023-04-19T03:25:49.567Z,14.40
2023-04-19T03:28:24.957Z,13.99
2023-04-19T03:31:23.927Z,13.62
2023-04-19T03:33:53.129Z,13.57
2023-04-19T03:36:24.035Z,13.77
2023-04-19T03:38:51.502Z,13.50
2023-04-19T03:41:24.240Z,13.79
2023-04-19T03:43:59.822Z,14.03
2023-04-19T03:46:26.743Z,13.86
2023-04-19T03:48:54.028Z,14.12
2023-04-19T03:51:22.723Z,14.03
2023-04-19T03:53:49.377Z,14.30
2023-04-19T03:56:18.348Z,14.38
2023-04-19T03:58:44.987Z,14.00
2023-04-19T04:01:21.393Z,14.52
2023-04-19T04:03:49.685Z,14.65
2023-04-19T04:06:17.998Z,14.39
2023-04-19T04:08:44.776Z,14.05
2023-04-19T04:11:11.637Z,14.32
2023-04-19T04:13:38.890Z,14.52
2023-04-19T04:16:16.351Z,14.71
2023-04-19T04:18:43.428Z,14.81
